sensor_id;sensor_type;location;lat;lon;timestamp;P1;durP1;ratioP1;P2;durP2;ratioP2
23117;SDS011;11728;50.624;6.014;2023-07-09T00:02:55;12.68;;;6.93;;
23117;SDS011;11728;50.624;6.014;2023-07-09T00:07:55;10.93;;;6.65;;
23117;SDS011;11728;50.624;6.014;2023-07-09T00:12:56;11.65;;;6.05;;
23117;SDS011;11728;50.624;6.014;2023-07-09T00:17:56;9.45;;;6.15;;
23117;SDS011;11728;50.624;6.014;2023-07-09T00:22:57;9.45;;;6.18;;
23117;SDS011;11728;50.624;6.014;2023-07-09T00:27:57;9.70;;;6.00;;
23117;SDS011;11728;50.624;6.014;2023-07-09T00:32:58;12.60;;;6.35;;
23117;SDS011;11728;50.624;6.014;2023-07-09T00:37:58;10.45;;;6.38;;
23117;SDS011;11728;50.624;6.014;2023-07-09T00:43:00;9.35;;;6.18;;
23117;SDS011;11728;50.624;6.014;2023-07-09T00:48:02;10.88;;;6.50;;
23117;SDS011;11728;50.624;6.014;2023-07-09T00:53:25;9.80;;;5.68;;
23117;SDS011;11728;50.624;6.014;2023-07-09T00:58:31;11.68;;;5.88;;
23117;SDS011;11728;50.624;6.014;2023-07-09T01:03:40;11.00;;;6.35;;
23117;SDS011;11728;50.624;6.014;2023-07-09T01:08:50;11.15;;;6.00;;
23117;SDS011;11728;50.624;6.014;2023-07-09T01:13:55;11.77;;;5.90;;
23117;SDS011;11728;50.624;6.014;2023-07-09T01:19:03;12.18;;;6.32;;
23117;SDS011;11728;50.624;6.014;2023-07-09T01:24:15;9.02;;;6.00;;
23117;SDS011;11728;50.624;6.014;2023-07-09T01:29:36;7.80;;;5.13;;
23117;SDS011;11728;50.624;6.014;2023-07-09T01:34:38;8.88;;;6.10;;
23117;SDS011;11728;50.624;6.014;2023-07-09T01:39:39;14.35;;;6.22;;
23117;SDS011;11728;50.624;6.014;2023-07-09T01:44:40;8.68;;;5.97;;
23117;SDS011;11728;50.624;6.014;2023-07-09T01:49:41;11.15;;;6.60;;
23117;SDS011;11728;50.624;6.014;2023-07-09T01:54:42;8.68;;;5.78;;
23117;SDS011;11728;50.624;6.014;2023-07-09T01:59:52;9.15;;;5.72;;
23117;SDS011;11728;50.624;6.014;2023-07-09T02:04:57;9.65;;;5.60;;
23117;SDS011;11728;50.624;6.014;2023-07-09T02:09:59;10.38;;;6.03;;
23117;SDS011;11728;50.624;6.014;2023-07-09T02:14:59;9.02;;;6.30;;
23117;SDS011;11728;50.624;6.014;2023-07-09T02:20:00;10.07;;;5.57;;
23117;SDS011;11728;50.624;6.014;2023-07-09T02:25:01;10.10;;;5.38;;
23117;SDS011;11728;50.624;6.014;2023-07-09T02:30:02;10.18;;;5.75;;
23117;SDS011;11728;50.624;6.014;2023-07-09T02:35:03;9.18;;;5.75;;
23117;SDS011;11728;50.624;6.014;2023-07-09T02:40:04;8.77;;;5.40;;
23117;SDS011;11728;50.624;6.014;2023-07-09T02:45:06;9.68;;;5.95;;
23117;SDS011;11728;50.624;6.014;2023-07-09T02:50:07;7.53;;;4.85;;
23117;SDS011;11728;50.624;6.014;2023-07-09T02:55:08;8.43;;;5.00;;
23117;SDS011;11728;50.624;6.014;2023-07-09T03:00:09;10.23;;;5.25;;
23117;SDS011;11728;50.624;6.014;2023-07-09T03:05:10;10.95;;;5.18;;
23117;SDS011;11728;50.624;6.014;2023-07-09T03:10:10;7.65;;;5.65;;
23117;SDS011;11728;50.624;6.014;2023-07-09T03:15:11;7.22;;;4.78;;
23117;SDS011;11728;50.624;6.014;2023-07-09T03:20:12;11.32;;;5.38;;
23117;SDS011;11728;50.624;6.014;2023-07-09T03:25:13;10.13;;;5.22;;
23117;SDS011;11728;50.624;6.014;2023-07-09T03:30:14;8.95;;;4.40;;
23117;SDS011;11728;50.624;6.014;2023-07-09T03:35:14;9.20;;;4.72;;
23117;SDS011;11728;50.624;6.014;2023-07-09T03:40:20;11.80;;;4.80;;
23117;SDS011;11728;50.624;6.014;2023-07-09T03:45:22;7.40;;;4.40;;
23117;SDS011;11728;50.624;6.014;2023-07-09T03:50:23;9.02;;;3.95;;
23117;SDS011;11728;50.624;6.014;2023-07-09T03:55:23;7.68;;;4.45;;
23117;SDS011;11728;50.624;6.014;2023-07-09T04:00:26;6.05;;;3.55;;
23117;SDS011;11728;50.624;6.014;2023-07-09T04:05:27;6.85;;;3.40;;
23117;SDS011;11728;50.624;6.014;2023-07-09T04:10:28;8.30;;;3.50;;
23117;SDS011;11728;50.624;6.014;2023-07-09T04:15:28;8.50;;;4.40;;
23117;SDS011;11728;50.624;6.014;2023-07-09T04:20:29;5.50;;;4.20;;
23117;SDS011;11728;50.624;6.014;2023-07-09T04:25:30;7.60;;;4.30;;
23117;SDS011;11728;50.624;6.014;2023-07-09T04:30:30;8.75;;;4.30;;
23117;SDS011;11728;50.624;6.014;2023-07-09T04:35:31;10.20;;;4.43;;
23117;SDS011;11728;50.624;6.014;2023-07-09T04:40:31;7.97;;;3.65;;
23117;SDS011;11728;50.624;6.014;2023-07-09T04:45:32;7.20;;;3.97;;
23117;SDS011;11728;50.624;6.014;2023-07-09T04:50:33;10.25;;;4.50;;
23117;SDS011;11728;50.624;6.014;2023-07-09T04:55:34;6.95;;;4.22;;
23117;SDS011;11728;50.624;6.014;2023-07-09T05:00:35;6.43;;;3.80;;
23117;SDS011;11728;50.624;6.014;2023-07-09T05:05:35;8.18;;;3.70;;
23117;SDS011;11728;50.624;6.014;2023-07-09T05:10:46;10.77;;;3.95;;
23117;SDS011;11728;50.624;6.014;2023-07-09T05:15:50;8.23;;;3.60;;
23117;SDS011;11728;50.624;6.014;2023-07-09T05:20:50;6.22;;;3.90;;
23117;SDS011;11728;50.624;6.014;2023-07-09T05:25:57;6.63;;;3.42;;
23117;SDS011;11728;50.624;6.014;2023-07-09T05:30:59;9.07;;;3.90;;
23117;SDS011;11728;50.624;6.014;2023-07-09T05:36:00;6.85;;;3.65;;
23117;SDS011;11728;50.624;6.014;2023-07-09T05:41:02;6.93;;;3.95;;
23117;SDS011;11728;50.624;6.014;2023-07-09T05:46:04;6.55;;;3.65;;
23117;SDS011;11728;50.624;6.014;2023-07-09T05:51:05;8.15;;;3.80;;
23117;SDS011;11728;50.624;6.014;2023-07-09T05:56:06;7.57;;;3.67;;
23117;SDS011;11728;50.624;6.014;2023-07-09T06:01:07;7.85;;;3.65;;
23117;SDS011;11728;50.624;6.014;2023-07-09T06:06:08;8.05;;;3.83;;
23117;SDS011;11728;50.624;6.014;2023-07-09T06:11:08;8.57;;;4.20;;
23117;SDS011;11728;50.624;6.014;2023-07-09T06:16:08;9.38;;;4.25;;
23117;SDS011;11728;50.624;6.014;2023-07-09T06:21:09;8.70;;;3.88;;
23117;SDS011;11728;50.624;6.014;2023-07-09T06:26:11;8.85;;;4.40;;
23117;SDS011;11728;50.624;6.014;2023-07-09T06:31:12;8.35;;;3.92;;
23117;SDS011;11728;50.624;6.014;2023-07-09T06:36:13;8.82;;;3.83;;
23117;SDS011;11728;50.624;6.014;2023-07-09T06:41:13;8.55;;;3.50;;
23117;SDS011;11728;50.624;6.014;2023-07-09T06:46:15;8.65;;;3.78;;
23117;SDS011;11728;50.624;6.014;2023-07-09T06:51:15;9.05;;;4.57;;
23117;SDS011;11728;50.624;6.014;2023-07-09T06:56:17;6.13;;;3.63;;
23117;SDS011;11728;50.624;6.014;2023-07-09T07:01:18;6.22;;;3.33;;
23117;SDS011;11728;50.624;6.014;2023-07-09T07:06:18;6.57;;;3.22;;
23117;SDS011;11728;50.624;6.014;2023-07-09T07:11:19;12.05;;;3.60;;
23117;SDS011;11728;50.624;6.014;2023-07-09T07:16:19;6.13;;;3.38;;
23117;SDS011;11728;50.624;6.014;2023-07-09T07:21:20;7.25;;;3.30;;
23117;SDS011;11728;50.624;6.014;2023-07-09T07:26:20;5.70;;;3.50;;
23117;SDS011;11728;50.624;6.014;2023-07-09T07:31:20;8.97;;;2.97;;
23117;SDS011;11728;50.624;6.014;2023-07-09T07:36:21;8.47;;;3.20;;
23117;SDS011;11728;50.624;6.014;2023-07-09T07:41:21;9.32;;;3.42;;
23117;SDS011;11728;50.624;6.014;2023-07-09T07:46:22;6.80;;;3.30;;
23117;SDS011;11728;50.624;6.014;2023-07-09T07:51:22;9.68;;;3.30;;
23117;SDS011;11728;50.624;6.014;2023-07-09T07:56:23;6.30;;;3.20;;
23117;SDS011;11728;50.624;6.014;2023-07-09T08:01:23;8.65;;;3.20;;
23117;SDS011;11728;50.624;6.014;2023-07-09T08:06:24;6.60;;;3.40;;
23117;SDS011;11728;50.624;6.014;2023-07-09T08:11:24;8.73;;;3.40;;
23117;SDS011;11728;50.624;6.014;2023-07-09T08:16:28;8.45;;;3.33;;
23117;SDS011;11728;50.624;6.014;2023-07-09T08:21:29;11.32;;;3.55;;
23117;SDS011;11728;50.624;6.014;2023-07-09T08:26:30;8.05;;;3.33;;
23117;SDS011;11728;50.624;6.014;2023-07-09T08:31:31;7.57;;;3.50;;
23117;SDS011;11728;50.624;6.014;2023-07-09T08:36:32;7.25;;;3.10;;
23117;SDS011;11728;50.624;6.014;2023-07-09T08:41:40;5.72;;;3.28;;
23117;SDS011;11728;50.624;6.014;2023-07-09T08:52:10;6.45;;;3.45;;
23117;SDS011;11728;50.624;6.014;2023-07-09T08:57:23;6.72;;;3.22;;
23117;SDS011;11728;50.624;6.014;2023-07-09T09:02:33;5.97;;;3.47;;
23117;SDS011;11728;50.624;6.014;2023-07-09T09:07:39;7.47;;;3.78;;
23117;SDS011;11728;50.624;6.014;2023-07-09T09:12:43;7.68;;;3.60;;
23117;SDS011;11728;50.624;6.014;2023-07-09T09:18:25;5.55;;;3.50;;
23117;SDS011;11728;50.624;6.014;2023-07-09T09:23:30;7.43;;;3.80;;
23117;SDS011;11728;50.624;6.014;2023-07-09T09:28:38;4.90;;;3.30;;
23117;SDS011;11728;50.624;6.014;2023-07-09T09:33:42;7.00;;;3.03;;
23117;SDS011;11728;50.624;6.014;2023-07-09T09:38:44;7.60;;;3.07;;
23117;SDS011;11728;50.624;6.014;2023-07-09T09:43:46;5.25;;;3.13;;
23117;SDS011;11728;50.624;6.014;2023-07-09T09:48:49;5.22;;;2.78;;
23117;SDS011;11728;50.624;6.014;2023-07-09T09:54:00;9.48;;;2.85;;
23117;SDS011;11728;50.624;6.014;2023-07-09T09:59:03;4.75;;;3.05;;
23117;SDS011;11728;50.624;6.014;2023-07-09T10:04:04;5.55;;;3.40;;
23117;SDS011;11728;50.624;6.014;2023-07-09T10:14:37;5.53;;;3.13;;
23117;SDS011;11728;50.624;6.014;2023-07-09T10:19:49;5.03;;;3.38;;
23117;SDS011;11728;50.624;6.014;2023-07-09T10:25:13;4.35;;;3.10;;
23117;SDS011;11728;50.624;6.014;2023-07-09T10:41:11;8.70;;;2.85;;
23117;SDS011;11728;50.624;6.014;2023-07-09T10:46:14;6.55;;;3.03;;
23117;SDS011;11728;50.624;6.014;2023-07-09T10:51:37;4.88;;;3.13;;
23117;SDS011;11728;50.624;6.014;2023-07-09T10:56:39;13.38;;;3.70;;
23117;SDS011;11728;50.624;6.014;2023-07-09T11:01:43;8.50;;;3.75;;
23117;SDS011;11728;50.624;6.014;2023-07-09T11:06:48;5.57;;;3.33;;
23117;SDS011;11728;50.624;6.014;2023-07-09T11:11:53;6.75;;;3.17;;
23117;SDS011;11728;50.624;6.014;2023-07-09T11:16:57;4.80;;;3.28;;
23117;SDS011;11728;50.624;6.014;2023-07-09T11:22:21;6.70;;;3.13;;
23117;SDS011;11728;50.624;6.014;2023-07-09T11:27:45;7.47;;;4.25;;
23117;SDS011;11728;50.624;6.014;2023-07-09T11:32:54;12.02;;;5.70;;
23117;SDS011;11728;50.624;6.014;2023-07-09T11:38:06;8.00;;;6.38;;
23117;SDS011;11728;50.624;6.014;2023-07-09T11:43:24;8.27;;;3.60;;
23117;SDS011;11728;50.624;6.014;2023-07-09T11:48:27;8.80;;;5.38;;
23117;SDS011;11728;50.624;6.014;2023-07-09T11:53:49;6.20;;;3.53;;
23117;SDS011;11728;50.624;6.014;2023-07-09T11:58:54;6.45;;;3.30;;
23117;SDS011;11728;50.624;6.014;2023-07-09T12:03:56;5.18;;;3.35;;
23117;SDS011;11728;50.624;6.014;2023-07-09T12:08:58;5.88;;;3.13;;
23117;SDS011;11728;50.624;6.014;2023-07-09T12:14:17;10.50;;;3.00;;
23117;SDS011;11728;50.624;6.014;2023-07-09T12:19:23;7.28;;;3.10;;
23117;SDS011;11728;50.624;6.014;2023-07-09T12:24:30;9.70;;;3.45;;
23117;SDS011;11728;50.624;6.014;2023-07-09T12:34:37;6.97;;;3.40;;
23117;SDS011;11728;50.624;6.014;2023-07-09T12:39:37;6.43;;;3.58;;
23117;SDS011;11728;50.624;6.014;2023-07-09T12:44:38;8.30;;;3.37;;
23117;SDS011;11728;50.624;6.014;2023-07-09T12:49:39;5.78;;;3.53;;
23117;SDS011;11728;50.624;6.014;2023-07-09T12:54:41;7.78;;;3.30;;
23117;SDS011;11728;50.624;6.014;2023-07-09T12:59:58;6.25;;;3.75;;
23117;SDS011;11728;50.624;6.014;2023-07-09T13:05:04;10.20;;;4.05;;
23117;SDS011;11728;50.624;6.014;2023-07-09T13:15:27;9.50;;;3.45;;
23117;SDS011;11728;50.624;6.014;2023-07-09T13:20:38;8.30;;;3.85;;
23117;SDS011;11728;50.624;6.014;2023-07-09T13:25:40;14.70;;;4.93;;
23117;SDS011;11728;50.624;6.014;2023-07-09T13:30:41;11.93;;;4.97;;
23117;SDS011;11728;50.624;6.014;2023-07-09T13:35:41;6.80;;;5.28;;
23117;SDS011;11728;50.624;6.014;2023-07-09T13:40:43;9.32;;;4.95;;
23117;SDS011;11728;50.624;6.014;2023-07-09T13:45:44;13.82;;;7.53;;
23117;SDS011;11728;50.624;6.014;2023-07-09T13:50:46;11.70;;;6.95;;
23117;SDS011;11728;50.624;6.014;2023-07-09T13:55:49;17.30;;;9.38;;
23117;SDS011;11728;50.624;6.014;2023-07-09T14:00:50;15.80;;;13.05;;
23117;SDS011;11728;50.624;6.014;2023-07-09T14:05:57;20.70;;;15.05;;
23117;SDS011;11728;50.624;6.014;2023-07-09T14:10:57;23.52;;;16.17;;
23117;SDS011;11728;50.624;6.014;2023-07-09T14:15:58;23.63;;;17.27;;
23117;SDS011;11728;50.624;6.014;2023-07-09T14:20:58;25.40;;;18.63;;
23117;SDS011;11728;50.624;6.014;2023-07-09T14:25:59;23.92;;;17.65;;
23117;SDS011;11728;50.624;6.014;2023-07-09T14:30:59;25.73;;;19.23;;
23117;SDS011;11728;50.624;6.014;2023-07-09T14:36:00;25.83;;;19.38;;
23117;SDS011;11728;50.624;6.014;2023-07-09T14:41:00;22.52;;;20.10;;
23117;SDS011;11728;50.624;6.014;2023-07-09T14:46:04;25.27;;;18.10;;
23117;SDS011;11728;50.624;6.014;2023-07-09T14:51:12;24.33;;;18.60;;
23117;SDS011;11728;50.624;6.014;2023-07-09T14:56:15;21.95;;;17.92;;
23117;SDS011;11728;50.624;6.014;2023-07-09T15:01:15;25.45;;;18.67;;
23117;SDS011;11728;50.624;6.014;2023-07-09T15:06:17;22.73;;;19.52;;
23117;SDS011;11728;50.624;6.014;2023-07-09T15:11:17;22.87;;;19.37;;
23117;SDS011;11728;50.624;6.014;2023-07-09T15:16:18;26.83;;;22.17;;
23117;SDS011;11728;50.624;6.014;2023-07-09T15:21:18;28.50;;;22.08;;
23117;SDS011;11728;50.624;6.014;2023-07-09T15:26:19;24.58;;;20.25;;
23117;SDS011;11728;50.624;6.014;2023-07-09T15:31:20;23.20;;;18.92;;
23117;SDS011;11728;50.624;6.014;2023-07-09T15:36:20;21.55;;;19.27;;
23117;SDS011;11728;50.624;6.014;2023-07-09T15:41:21;16.03;;;12.30;;
23117;SDS011;11728;50.624;6.014;2023-07-09T15:46:21;11.33;;;7.70;;
23117;SDS011;11728;50.624;6.014;2023-07-09T15:51:22;9.35;;;5.63;;
23117;SDS011;11728;50.624;6.014;2023-07-09T15:56:26;8.45;;;5.50;;
23117;SDS011;11728;50.624;6.014;2023-07-09T16:01:30;11.55;;;5.57;;
23117;SDS011;11728;50.624;6.014;2023-07-09T16:06:30;6.82;;;4.20;;
23117;SDS011;11728;50.624;6.014;2023-07-09T16:11:31;8.43;;;4.22;;
23117;SDS011;11728;50.624;6.014;2023-07-09T16:16:32;6.80;;;4.05;;
23117;SDS011;11728;50.624;6.014;2023-07-09T16:21:33;8.18;;;5.00;;
23117;SDS011;11728;50.624;6.014;2023-07-09T16:26:33;9.48;;;6.63;;
23117;SDS011;11728;50.624;6.014;2023-07-09T16:31:34;12.25;;;9.48;;
23117;SDS011;11728;50.624;6.014;2023-07-09T16:36:34;16.13;;;11.43;;
23117;SDS011;11728;50.624;6.014;2023-07-09T16:41:36;14.77;;;10.95;;
23117;SDS011;11728;50.624;6.014;2023-07-09T16:46:36;15.88;;;11.95;;
23117;SDS011;11728;50.624;6.014;2023-07-09T16:51:37;17.87;;;14.27;;
23117;SDS011;11728;50.624;6.014;2023-07-09T16:56:37;15.73;;;12.57;;
23117;SDS011;11728;50.624;6.014;2023-07-09T17:01:38;17.58;;;11.88;;
23117;SDS011;11728;50.624;6.014;2023-07-09T17:06:41;15.93;;;12.73;;
23117;SDS011;11728;50.624;6.014;2023-07-09T17:11:42;17.73;;;13.75;;
23117;SDS011;11728;50.624;6.014;2023-07-09T17:16:42;15.02;;;13.43;;
23117;SDS011;11728;50.624;6.014;2023-07-09T17:21:45;19.13;;;13.77;;
23117;SDS011;11728;50.624;6.014;2023-07-09T17:26:51;14.40;;;12.07;;
23117;SDS011;11728;50.624;6.014;2023-07-09T17:31:53;15.20;;;11.68;;
23117;SDS011;11728;50.624;6.014;2023-07-09T17:36:54;16.58;;;11.93;;
23117;SDS011;11728;50.624;6.014;2023-07-09T17:41:55;14.82;;;11.52;;
23117;SDS011;11728;50.624;6.014;2023-07-09T17:46:56;14.32;;;11.13;;
23117;SDS011;11728;50.624;6.014;2023-07-09T17:51:56;15.30;;;11.20;;
23117;SDS011;11728;50.624;6.014;2023-07-09T17:56:57;13.80;;;11.43;;
23117;SDS011;11728;50.624;6.014;2023-07-09T18:02:11;15.55;;;11.27;;
23117;SDS011;11728;50.624;6.014;2023-07-09T18:12:26;15.50;;;9.15;;
23117;SDS011;11728;50.624;6.014;2023-07-09T18:17:32;13.25;;;10.80;;
23117;SDS011;11728;50.624;6.014;2023-07-09T18:22:34;14.10;;;9.18;;
23117;SDS011;11728;50.624;6.014;2023-07-09T18:27:36;13.43;;;8.85;;
23117;SDS011;11728;50.624;6.014;2023-07-09T18:32:39;10.57;;;7.85;;
23117;SDS011;11728;50.624;6.014;2023-07-09T18:37:39;13.83;;;9.90;;
23117;SDS011;11728;50.624;6.014;2023-07-09T18:42:40;15.83;;;9.77;;
23117;SDS011;11728;50.624;6.014;2023-07-09T18:47:41;11.95;;;9.48;;
23117;SDS011;11728;50.624;6.014;2023-07-09T18:52:42;13.55;;;10.27;;
23117;SDS011;11728;50.624;6.014;2023-07-09T18:57:43;12.55;;;9.50;;
23117;SDS011;11728;50.624;6.014;2023-07-09T19:02:44;13.13;;;10.02;;
23117;SDS011;11728;50.624;6.014;2023-07-09T19:07:49;13.80;;;10.38;;
23117;SDS011;11728;50.624;6.014;2023-07-09T19:12:53;14.30;;;10.88;;
23117;SDS011;11728;50.624;6.014;2023-07-09T19:17:58;12.65;;;9.07;;
23117;SDS011;11728;50.624;6.014;2023-07-09T19:22:58;11.27;;;8.93;;
23117;SDS011;11728;50.624;6.014;2023-07-09T19:27:59;11.10;;;8.73;;
23117;SDS011;11728;50.624;6.014;2023-07-09T19:33:00;12.38;;;8.73;;
23117;SDS011;11728;50.624;6.014;2023-07-09T19:38:01;14.13;;;9.43;;
23117;SDS011;11728;50.624;6.014;2023-07-09T19:43:04;12.93;;;8.68;;
23117;SDS011;11728;50.624;6.014;2023-07-09T19:48:04;12.30;;;8.18;;
23117;SDS011;11728;50.624;6.014;2023-07-09T19:53:18;14.98;;;8.88;;
23117;SDS011;11728;50.624;6.014;2023-07-09T19:58:21;12.75;;;9.15;;
23117;SDS011;11728;50.624;6.014;2023-07-09T20:03:29;11.20;;;8.45;;
23117;SDS011;11728;50.624;6.014;2023-07-09T20:08:38;9.32;;;8.13;;
23117;SDS011;11728;50.624;6.014;2023-07-09T20:13:39;10.15;;;8.27;;
23117;SDS011;11728;50.624;6.014;2023-07-09T20:18:40;10.60;;;8.30;;
23117;SDS011;11728;50.624;6.014;2023-07-09T20:23:40;13.07;;;8.88;;
23117;SDS011;11728;50.624;6.014;2023-07-09T20:28:41;10.60;;;8.57;;
23117;SDS011;11728;50.624;6.014;2023-07-09T20:33:42;11.05;;;8.23;;
23117;SDS011;11728;50.624;6.014;2023-07-09T20:38:42;9.75;;;8.55;;
23117;SDS011;11728;50.624;6.014;2023-07-09T20:43:43;13.43;;;9.20;;
23117;SDS011;11728;50.624;6.014;2023-07-09T20:48:44;10.68;;;8.27;;
23117;SDS011;11728;50.624;6.014;2023-07-09T20:53:44;15.38;;;9.35;;
23117;SDS011;11728;50.624;6.014;2023-07-09T20:58:45;9.50;;;8.45;;
23117;SDS011;11728;50.624;6.014;2023-07-09T21:03:52;14.43;;;8.98;;
23117;SDS011;11728;50.624;6.014;2023-07-09T21:08:52;10.80;;;8.85;;
23117;SDS011;11728;50.624;6.014;2023-07-09T21:13:53;13.63;;;11.38;;
23117;SDS011;11728;50.624;6.014;2023-07-09T21:18:53;16.35;;;13.77;;
23117;SDS011;11728;50.624;6.014;2023-07-09T21:23:54;15.35;;;12.10;;
23117;SDS011;11728;50.624;6.014;2023-07-09T21:28:54;13.48;;;10.77;;
23117;SDS011;11728;50.624;6.014;2023-07-09T21:33:55;16.02;;;9.93;;
23117;SDS011;11728;50.624;6.014;2023-07-09T21:38:55;14.98;;;11.15;;
23117;SDS011;11728;50.624;6.014;2023-07-09T21:43:56;19.60;;;10.07;;
23117;SDS011;11728;50.624;6.014;2023-07-09T21:48:56;12.55;;;8.88;;
23117;SDS011;11728;50.624;6.014;2023-07-09T21:53:57;11.90;;;9.50;;
23117;SDS011;11728;50.624;6.014;2023-07-09T21:58:58;13.73;;;9.95;;
23117;SDS011;11728;50.624;6.014;2023-07-09T22:03:59;13.43;;;10.00;;
23117;SDS011;11728;50.624;6.014;2023-07-09T22:08:59;14.52;;;10.10;;
23117;SDS011;11728;50.624;6.014;2023-07-09T22:14:00;12.63;;;10.40;;
23117;SDS011;11728;50.624;6.014;2023-07-09T22:19:00;14.93;;;10.35;;
23117;SDS011;11728;50.624;6.014;2023-07-09T22:24:01;13.23;;;10.47;;
23117;SDS011;11728;50.624;6.014;2023-07-09T22:29:02;11.90;;;9.90;;
23117;SDS011;11728;50.624;6.014;2023-07-09T22:34:09;14.90;;;10.43;;
23117;SDS011;11728;50.624;6.014;2023-07-09T22:39:19;12.68;;;9.95;;
23117;SDS011;11728;50.624;6.014;2023-07-09T22:44:19;14.68;;;10.70;;
23117;SDS011;11728;50.624;6.014;2023-07-09T22:49:20;11.73;;;9.05;;
23117;SDS011;11728;50.624;6.014;2023-07-09T22:54:25;15.45;;;9.27;;
23117;SDS011;11728;50.624;6.014;2023-07-09T22:59:26;13.27;;;9.57;;
23117;SDS011;11728;50.624;6.014;2023-07-09T23:04:26;11.67;;;10.10;;
23117;SDS011;11728;50.624;6.014;2023-07-09T23:09:26;12.77;;;9.93;;
23117;SDS011;11728;50.624;6.014;2023-07-09T23:14:27;16.37;;;11.60;;
23117;SDS011;11728;50.624;6.014;2023-07-09T23:19:28;17.60;;;11.60;;
23117;SDS011;11728;50.624;6.014;2023-07-09T23:24:31;20.02;;;13.15;;
23117;SDS011;11728;50.624;6.014;2023-07-09T23:29:31;17.90;;;13.23;;
23117;SDS011;11728;50.624;6.014;2023-07-09T23:34:32;15.80;;;13.17;;
23117;SDS011;11728;50.624;6.014;2023-07-09T23:39:32;18.95;;;13.35;;
23117;SDS011;11728;50.624;6.014;2023-07-09T23:44:33;18.98;;;13.65;;
23117;SDS011;11728;50.624;6.014;2023-07-09T23:49:33;19.55;;;14.73;;
23117;SDS011;11728;50.624;6.014;2023-07-09T23:54:34;19.63;;;15.20;;
23117;SDS011;11728;50.624;6.014;2023-07-09T23:59:34;19.98;;;15.70;;
